Bailey, Mississippi
Current Conditions -  °F | °C
As of 6:58 PM on Wednesday 22 Oct 2014 (Local Time) from KMEI Reporting Station
Clear Clear  
Wind Chill: 58°   Ceiling: Unl
Heat Index: 58°   Visibility: 10mi
Dew Point: 46°   Wind: 7mph
Humidity: 65%   Direction: 350°N
Pressure: 30.11"   Gusts: NA
Location:  32.47°N, 88.72°W
Report Text: KMEI 222358Z 35006KT 10SM CLR 14/08 A3011 RMK AO2 SLP196 T01440078 10233 20144 53009
Loading
Personal Weather Stations






























Interactive Weather Map
Tropical Storm Tracking
New forecast layout! Learn more

10-Day Weather Forecast

Advertisements
Track Severe Weather on mobile